Time;durP1;ratioP1;P1;durP2;ratioP2;P2;SDS_P1;SDS_P2;PMS_P1;PMS_P2;Temp;Humidity;BMP_temperature;BMP_pressure;BME280_temperature;BME280_humidity;BME280_pressure;Samples;Min_cycle;Max_cycle;Signal;HPM_P1;HPM_P2
2023/11/27 00:00:25;;;;;;;8.00;5.10;;;;;;;-2.84;87.17;97101.04;107959;1253;60396;-79
2023/11/27 00:03:06;;;;;;;6.30;4.70;;;;;;;-2.88;87.26;97096.63;106465;1254;72503;-79
2023/11/27 00:05:34;;;;;;;6.70;4.50;;;;;;;-2.85;87.29;97096.48;106040;1254;70181;-78
2023/11/27 00:08:03;;;;;;;6.50;4.80;;;;;;;-2.75;86.74;97085.27;106040;1254;71761;-79
2023/11/27 00:10:30;;;;;;;6.70;4.90;;;;;;;-2.80;86.93;97083.02;105763;1255;60527;-77
2023/11/27 00:12:58;;;;;;;10.50;5.10;;;;;;;-2.85;87.37;97089.60;106182;1254;60472;-79
2023/11/27 00:15:25;;;;;;;8.80;5.80;;;;;;;-2.91;87.35;97093.77;106728;1254;73936;-81
2023/11/27 00:17:52;;;;;;;7.10;4.90;;;;;;;-2.87;87.15;97095.30;106464;1254;70188;-79
2023/11/27 00:20:20;;;;;;;7.60;4.90;;;;;;;-2.79;86.78;97093.27;105726;1261;73031;-79
2023/11/27 00:22:47;;;;;;;7.20;4.80;;;;;;;-2.81;86.80;97096.80;105726;1254;60492;-80
2023/11/27 00:25:14;;;;;;;8.80;5.30;;;;;;;-2.86;86.71;97101.80;105867;1254;60665;-80
2023/11/27 00:27:42;;;;;;;10.20;5.30;;;;;;;-2.91;86.87;97089.84;105985;1256;73856;-78
2023/11/27 00:30:13;;;;;;;6.80;4.90;;;;;;;-2.84;86.90;97093.18;106115;1254;70033;-76
2023/11/27 00:32:39;;;;;;;5.90;3.70;;;;;;;-2.76;86.63;97089.88;105748;1254;72787;-79
2023/11/27 00:35:08;;;;;;;7.70;5.60;;;;;;;-2.78;86.58;97090.45;106218;1254;60503;-77
2023/11/27 00:37:34;;;;;;;9.70;5.80;;;;;;;-2.83;86.57;97093.66;105786;1254;60485;-77
2023/11/27 00:40:01;;;;;;;6.30;4.50;;;;;;;-2.87;86.20;97089.80;106026;1256;73538;-79
2023/11/27 00:42:29;;;;;;;6.90;4.30;;;;;;;-2.80;86.38;97086.86;106046;1254;70653;-80
2023/11/27 00:44:55;;;;;;;6.90;4.60;;;;;;;-2.80;86.40;97086.33;106037;1255;72568;-78
2023/11/27 00:47:22;;;;;;;8.70;5.00;;;;;;;-2.87;86.63;97083.19;106020;1253;60455;-79
2023/11/27 00:49:49;;;;;;;8.60;5.80;;;;;;;-2.91;86.66;97081.53;105898;1254;60540;-78
2023/11/27 00:52:16;;;;;;;7.30;5.40;;;;;;;-2.97;86.90;97083.45;105879;1256;74122;-79
2023/11/27 00:54:43;;;;;;;7.00;5.50;;;;;;;-2.90;86.54;97087.62;105745;1255;70371;-78
2023/11/27 00:57:11;;;;;;;6.90;4.80;;;;;;;-2.80;86.16;97081.98;105757;1259;72500;-77
2023/11/27 00:59:40;;;;;;;9.50;5.80;;;;;;;-2.85;86.14;97087.65;105812;1252;60433;-80
2023/11/27 01:02:07;;;;;;;7.20;4.70;;;;;;;-2.91;86.48;97092.92;105923;1256;60446;-77
2023/11/27 01:04:34;;;;;;;7.50;4.90;;;;;;;-2.96;86.30;97086.20;105911;1254;73648;-78
2023/11/27 01:07:01;;;;;;;5.60;4.30;;;;;;;-2.94;86.67;97081.42;105729;1254;70247;-80
2023/11/27 01:09:28;;;;;;;7.60;4.90;;;;;;;-2.84;86.55;97082.85;105869;1254;72873;-78
2023/11/27 01:11:56;;;;;;;7.80;4.70;;;;;;;-2.84;86.56;97083.28;105896;1260;60540;-77
2023/11/27 01:14:23;;;;;;;7.50;5.30;;;;;;;-2.93;86.21;97085.15;105696;1254;60489;-76
2023/11/27 01:16:51;;;;;;;7.20;4.80;;;;;;;-3.01;86.23;97081.02;105825;1259;73828;-77
2023/11/27 01:19:18;;;;;;;9.50;4.20;;;;;;;-3.00;86.40;97083.42;106034;1254;70461;-79
2023/11/27 01:21:45;;;;;;;9.70;6.00;;;;;;;-2.92;86.21;97087.81;106035;1254;71137;-78
2023/11/27 01:24:12;;;;;;;8.30;5.50;;;;;;;-2.93;86.22;97082.73;106172;1253;60570;-78
2023/11/27 01:26:39;;;;;;;6.20;4.60;;;;;;;-3.00;86.82;97083.88;107139;1253;58915;-77
2023/11/27 01:29:05;;;;;;;6.20;4.30;;;;;;;-3.05;87.42;97082.80;106088;1259;73573;-79
2023/11/27 01:31:33;;;;;;;7.20;4.60;;;;;;;-3.06;87.14;97088.46;106142;1256;70188;-78
2023/11/27 01:34:00;;;;;;;4.90;3.60;;;;;;;-2.99;85.93;97085.52;106796;1254;72758;-78
2023/11/27 01:36:28;;;;;;;6.10;4.10;;;;;;;-2.91;85.66;97089.13;108221;1253;59179;-77
2023/11/27 01:38:55;;;;;;;7.00;4.30;;;;;;;-2.93;85.85;97087.42;106218;1254;60483;-79
2023/11/27 01:41:22;;;;;;;5.80;4.20;;;;;;;-2.98;85.60;97090.33;106466;1254;73828;-82
2023/11/27 01:43:49;;;;;;;6.50;4.60;;;;;;;-3.02;85.72;97089.15;106888;1253;69344;-76
2023/11/27 01:46:24;;;;;;;6.00;4.00;;;;;;;-3.02;85.43;97087.20;106493;1256;72527;-79
2023/11/27 01:48:53;;;;;;;5.60;4.30;;;;;;;-2.92;85.09;97081.59;108037;1253;60172;-79
2023/11/27 01:51:28;;;;;;;6.90;4.70;;;;;;;-2.92;85.07;97081.84;107543;1254;60447;-76
2023/11/27 01:53:57;;;;;;;6.20;4.20;;;;;;;-2.99;85.01;97086.26;105827;1259;72594;-77
2023/11/27 01:56:24;;;;;;;12.90;5.30;;;;;;;-3.06;85.25;97082.23;105828;1259;70569;-77
2023/11/27 01:58:52;;;;;;;8.10;4.30;;;;;;;-3.11;85.22;97072.54;106100;1254;72586;-79
2023/11/27 02:01:19;;;;;;;7.40;4.30;;;;;;;-3.02;84.71;97085.13;106056;1254;61083;-79
2023/11/27 02:03:47;;;;;;;6.80;4.50;;;;;;;-2.93;84.59;97082.23;105892;1253;60511;-77
2023/11/27 02:06:14;;;;;;;5.30;3.80;;;;;;;-2.94;84.60;97081.95;105975;1259;73957;-78
2023/11/27 02:08:41;;;;;;;6.60;5.10;;;;;;;-2.98;84.34;97095.13;105943;1254;70170;-76
2023/11/27 02:11:07;;;;;;;6.60;4.00;;;;;;;-3.02;84.16;97087.73;105971;1254;72547;-76
2023/11/27 02:13:34;;;;;;;6.70;4.60;;;;;;;-3.06;83.79;97087.04;105992;1254;61272;-76
2023/11/27 02:16:01;;;;;;;8.00;4.90;;;;;;;-2.97;83.70;97090.91;105907;1254;60568;-79
2023/11/27 02:18:28;;;;;;;4.20;3.60;;;;;;;-2.89;83.07;97081.64;105934;1257;73834;-77
2023/11/27 02:21:02;;;;;;;8.00;4.20;;;;;;;-2.93;82.86;97091.09;105694;1254;70343;-79
2023/11/27 02:23:29;;;;;;;6.10;4.20;;;;;;;-3.01;82.97;97089.67;105811;1258;72827;-79
2023/11/27 02:25:58;;;;;;;5.50;4.00;;;;;;;-3.03;82.81;97094.80;106096;1254;60622;-78
2023/11/27 02:28:25;;;;;;;8.00;4.80;;;;;;;-3.04;82.42;97086.75;105930;1254;60608;-79
2023/11/27 02:30:51;;;;;;;6.60;3.80;;;;;;;-2.97;82.76;97095.70;106189;1254;73688;-78
2023/11/27 02:33:18;;;;;;;6.80;4.50;;;;;;;-2.95;83.10;97091.27;106649;1259;69059;-79
2023/11/27 02:35:45;;;;;;;8.20;4.70;;;;;;;-3.00;83.17;97097.58;106547;1254;72606;-79
2023/11/27 02:38:12;;;;;;;6.70;4.50;;;;;;;-3.02;82.97;97106.61;106036;1254;60517;-78
2023/11/27 02:40:39;;;;;;;6.10;4.30;;;;;;;-3.03;82.58;97107.92;105823;1254;60507;-80
2023/11/27 02:43:06;;;;;;;6.70;4.30;;;;;;;-3.04;81.74;97107.88;105970;1259;73984;-78
2023/11/27 02:45:33;;;;;;;5.10;3.80;;;;;;;-2.97;80.95;97110.29;105904;1254;70131;-77
2023/11/27 02:48:01;;;;;;;5.40;3.80;;;;;;;-2.88;80.55;97105.98;105706;1254;73149;-78
2023/11/27 02:50:29;;;;;;;6.80;4.40;;;;;;;-2.91;80.81;97106.80;105960;1254;60401;-78
2023/11/27 02:52:55;;;;;;;5.50;3.90;;;;;;;-2.96;80.59;97105.73;105733;1254;60392;-76
2023/11/27 02:55:22;;;;;;;6.20;4.60;;;;;;;-3.01;80.41;97113.09;106820;1252;73704;-79
2023/11/27 02:57:49;;;;;;;6.30;4.20;;;;;;;-3.03;80.09;97120.04;106392;1254;70317;-77
2023/11/27 03:00:18;;;;;;;6.70;4.60;;;;;;;-2.95;79.80;97115.98;106053;1255;72567;-78
2023/11/27 03:02:46;;;;;;;6.40;4.20;;;;;;;-2.91;80.00;97117.51;106024;1254;60546;-78
2023/11/27 03:05:13;;;;;;;6.40;3.70;;;;;;;-2.94;79.85;97116.51;106034;1257;60292;-80
2023/11/27 03:07:41;;;;;;;6.70;4.20;;;;;;;-3.01;79.68;97124.52;106166;1256;73840;-80
2023/11/27 03:10:08;;;;;;;9.50;5.40;;;;;;;-3.06;79.80;97130.35;109410;1254;70363;-79
2023/11/27 03:12:38;;;;;;;8.80;4.70;;;;;;;-3.07;80.16;97129.43;106876;1254;72409;-80
2023/11/27 03:15:05;;;;;;;5.30;4.10;;;;;;;-2.98;79.98;97132.55;106097;1256;60775;-82
2023/11/27 03:17:32;;;;;;;8.20;4.60;;;;;;;-2.95;80.00;97134.06;106120;1254;60841;-78
2023/11/27 03:19:59;;;;;;;7.40;5.40;;;;;;;-3.00;80.40;97129.44;105960;1254;711393;-80
2023/11/27 03:23:36;;;;;;;6.70;4.30;;;;;;;-3.01;80.85;97130.60;102684;1291;600558;-78
2023/11/27 03:26:03;;;;;;;7.10;5.10;;;;;;;-3.05;80.82;97125.48;105054;1266;59249;-77
2023/11/27 03:28:34;;;;;;;7.10;4.50;;;;;;;-3.07;81.62;97131.64;104931;1266;60271;-77
2023/11/27 03:31:02;;;;;;;7.80;5.20;;;;;;;-3.02;81.40;97134.33;105547;1262;71084;-78
2023/11/27 03:33:29;;;;;;;7.90;4.90;;;;;;;-3.03;81.48;97133.37;105718;1267;68812;-78
2023/11/27 03:35:57;;;;;;;7.50;4.80;;;;;;;-3.09;81.65;97142.77;105431;1263;72728;-76
2023/11/27 03:38:25;;;;;;;7.90;5.30;;;;;;;-3.16;81.82;97141.73;105205;1260;173668;-76
2023/11/27 03:40:52;;;;;;;7.60;4.60;;;;;;;-3.23;82.25;97146.04;105598;1256;59172;-79
2023/11/27 03:43:23;;;;;;;9.60;6.50;;;;;;;-3.18;82.12;97151.09;105751;1256;71003;-77
2023/11/27 03:45:51;;;;;;;9.00;5.70;;;;;;;-3.12;82.21;97150.33;105912;1263;70695;-79
2023/11/27 03:48:19;;;;;;;12.50;7.90;;;;;;;-3.15;82.66;97154.30;105586;1257;72961;-80
2023/11/27 03:50:47;;;;;;;9.00;5.70;;;;;;;-3.20;83.33;97157.98;105540;1257;59706;-81
2023/11/27 03:53:14;;;;;;;9.00;5.90;;;;;;;-3.24;83.52;97169.11;105559;1260;60130;-78
2023/11/27 03:55:43;;;;;;;6.60;4.50;;;;;;;-3.28;83.68;97169.48;105549;1262;71781;-79
2023/11/27 03:58:10;;;;;;;8.80;4.80;;;;;;;-3.21;83.57;97175.14;105786;1257;70117;-76
2023/11/27 04:00:39;;;;;;;10.90;4.90;;;;;;;-3.23;83.96;97174.24;105466;1256;72980;-77
2023/11/27 04:03:06;;;;;;;7.80;4.80;;;;;;;-3.31;84.18;97176.68;105544;1262;59753;-77
2023/11/27 04:05:34;;;;;;;8.60;5.00;;;;;;;-3.38;84.61;97175.59;105431;1260;59689;-77
2023/11/27 04:08:02;;;;;;;7.70;4.90;;;;;;;-3.42;84.85;97175.18;105474;1264;73078;-78
2023/11/27 04:10:30;;;;;;;11.20;5.20;;;;;;;-3.34;84.92;97172.85;105493;1262;69322;-79
2023/11/27 04:12:58;;;;;;;7.40;5.10;;;;;;;-3.33;85.18;97173.83;105907;1257;72642;-77
2023/11/27 04:15:25;;;;;;;7.30;5.40;;;;;;;-3.41;85.47;97181.62;105813;1261;59708;-77
2023/11/27 04:17:53;;;;;;;7.30;4.80;;;;;;;-3.50;85.80;97173.27;105638;1256;59699;-78
2023/11/27 04:20:21;;;;;;;7.10;4.80;;;;;;;-3.55;85.97;97176.53;105613;1260;73324;-78
2023/11/27 04:22:50;;;;;;;6.90;4.40;;;;;;;-3.47;86.09;97185.64;105524;1256;67946;-79
2023/11/27 04:25:18;;;;;;;7.00;4.60;;;;;;;-3.42;86.10;97187.39;105936;1262;71814;-79
2023/11/27 04:27:46;;;;;;;7.00;4.50;;;;;;;-3.46;86.22;97187.13;107261;1259;59632;-78
2023/11/27 04:30:14;;;;;;;8.20;4.90;;;;;;;-3.52;86.38;97187.83;107120;1259;59617;-76
2023/11/27 04:32:42;;;;;;;7.00;4.60;;;;;;;-3.55;86.55;97180.33;105605;1256;71533;-78
2023/11/27 04:35:09;;;;;;;7.10;4.40;;;;;;;-3.47;86.73;97182.55;105519;1259;68807;-79
2023/11/27 04:37:37;;;;;;;6.90;4.60;;;;;;;-3.41;89.11;97186.29;105686;1256;72906;-78
2023/11/27 04:40:10;;;;;;;18.80;13.80;;;;;;;-3.47;90.07;97188.20;105704;1259;61371;-79
2023/11/27 04:42:38;;;;;;;10.10;6.20;;;;;;;-3.54;91.07;97186.83;105996;1256;59736;-79
2023/11/27 04:45:07;;;;;;;6.70;4.90;;;;;;;-3.58;91.41;97192.65;108848;1257;71490;-76
2023/11/27 04:47:35;;;;;;;7.70;4.60;;;;;;;-3.52;91.04;97194.06;105948;1263;68950;-80
2023/11/27 04:50:04;;;;;;;7.00;4.40;;;;;;;-3.44;89.66;97190.24;106414;1259;72809;-80
2023/11/27 04:52:32;;;;;;;8.40;5.20;;;;;;;-3.50;89.74;97195.95;106048;1263;59717;-80
2023/11/27 04:55:02;;;;;;;7.30;5.10;;;;;;;-3.58;90.34;97196.02;105722;1259;60077;-78
2023/11/27 04:57:31;;;;;;;8.90;5.60;;;;;;;-3.62;90.31;97195.86;105464;1263;73078;-81
2023/11/27 04:59:59;;;;;;;7.80;5.10;;;;;;;-3.54;89.95;97197.35;105527;1257;71811;-80
2023/11/27 05:02:28;;;;;;;9.00;4.80;;;;;;;-3.46;89.48;97197.80;105549;1259;71711;-77
2023/11/27 05:04:56;;;;;;;7.70;5.00;;;;;;;-3.49;89.08;97205.79;105217;1264;59607;-79
2023/11/27 05:07:24;;;;;;;8.20;5.80;;;;;;;-3.57;88.96;97208.02;105441;1259;60004;-78
2023/11/27 05:09:51;;;;;;;9.80;5.20;;;;;;;-3.63;88.84;97210.16;105399;1257;73222;-79
2023/11/27 05:12:19;;;;;;;8.20;4.80;;;;;;;-3.57;88.63;97207.69;105324;1260;70034;-78
2023/11/27 05:14:59;;;;;;;7.10;4.90;;;;;;;-3.55;88.58;97211.80;105399;1256;72763;-76
2023/11/27 05:17:26;;;;;;;19.80;6.50;;;;;;;-3.62;89.07;97212.97;105657;1257;59675;-77
2023/11/27 05:19:54;;;;;;;6.70;4.60;;;;;;;-3.70;89.37;97219.05;105709;1259;59708;-76
2023/11/27 05:22:22;;;;;;;7.20;5.00;;;;;;;-3.68;89.33;97221.97;105464;1257;71919;-78
2023/11/27 05:24:50;;;;;;;7.60;4.80;;;;;;;-3.61;89.95;97224.13;105925;1262;68724;-80
2023/11/27 05:27:18;;;;;;;6.90;4.10;;;;;;;-3.65;91.19;97220.13;105430;1257;72463;-77
2023/11/27 05:29:45;;;;;;;6.50;4.90;;;;;;;-3.69;91.47;97226.81;105404;1262;59720;-79
2023/11/27 05:32:13;;;;;;;7.40;4.30;;;;;;;-3.72;91.37;97225.67;105650;1260;59525;-80
2023/11/27 05:34:41;;;;;;;8.60;4.80;;;;;;;-3.64;91.43;97228.23;105486;1256;71145;-77
2023/11/27 05:37:08;;;;;;;7.00;4.20;;;;;;;-3.58;91.09;97226.75;105467;1262;70684;-78
2023/11/27 05:39:37;;;;;;;7.90;5.00;;;;;;;-3.61;91.43;97230.57;105422;1257;71407;-79
2023/11/27 05:42:05;;;;;;;8.10;5.60;;;;;;;-3.65;91.26;97230.88;105498;1262;59823;-79
2023/11/27 05:44:32;;;;;;;11.60;5.20;;;;;;;-3.65;90.78;97242.45;105548;1256;60067;-78
2023/11/27 05:47:00;;;;;;;9.60;5.20;;;;;;;-3.55;89.82;97232.90;105526;1262;71687;-79
2023/11/27 05:49:30;;;;;;;7.90;5.20;;;;;;;-3.50;89.40;97238.17;105542;1260;70019;-76
2023/11/27 05:51:58;;;;;;;8.00;4.90;;;;;;;-3.58;89.42;97240.98;106300;1260;71158;-79
2023/11/27 05:54:27;;;;;;;7.70;5.30;;;;;;;-3.66;89.37;97251.61;106166;1264;60245;-81
2023/11/27 05:56:54;;;;;;;8.20;5.40;;;;;;;-3.68;89.40;97250.00;105722;1262;59551;-75
2023/11/27 05:59:22;;;;;;;6.90;4.80;;;;;;;-3.58;89.55;97246.30;105884;1256;71845;-78
2023/11/27 06:01:51;;;;;;;9.40;5.60;;;;;;;-3.53;89.48;97245.42;107142;1259;67735;-80
2023/11/27 06:04:19;;;;;;;8.30;5.90;;;;;;;-3.58;89.22;97256.37;107575;1257;71177;-81
2023/11/27 06:06:46;;;;;;;9.00;5.80;;;;;;;-3.60;89.44;97250.02;105839;1262;59706;-83
2023/11/27 06:09:15;;;;;;;9.20;5.80;;;;;;;-3.61;90.20;97257.17;106330;1265;59683;-81
2023/11/27 06:11:43;;;;;;;7.90;5.10;;;;;;;-3.50;90.25;97258.58;106692;1262;75071;-80
2023/11/27 06:14:11;;;;;;;10.10;5.20;;;;;;;-3.44;89.81;97264.26;106070;1256;69493;-82
2023/11/27 06:16:39;;;;;;;8.90;5.70;;;;;;;-3.49;89.89;97261.56;106379;1256;71768;-81
2023/11/27 06:19:07;;;;;;;9.90;5.90;;;;;;;-3.55;89.35;97269.81;107625;1256;59631;-81
2023/11/27 06:21:35;;;;;;;9.00;5.40;;;;;;;-3.50;89.58;97270.52;107306;1258;59811;-83
2023/11/27 06:24:03;;;;;;;8.90;5.40;;;;;;;-3.41;89.24;97269.23;106615;1262;72861;-82
2023/11/27 06:26:31;;;;;;;8.50;5.40;;;;;;;-3.44;89.37;97274.30;106556;1256;68843;-85
2023/11/27 06:28:58;;;;;;;10.60;6.60;;;;;;;-3.49;89.31;97277.02;106885;1265;72726;-84
2023/11/27 06:31:26;;;;;;;8.70;5.70;;;;;;;-3.51;88.51;97279.82;106187;1262;59722;-83
2023/11/27 06:33:54;;;;;;;10.10;5.10;;;;;;;-3.39;88.06;97279.23;106427;1256;59832;-84
2023/11/27 06:36:22;;;;;;;9.00;6.10;;;;;;;-3.33;87.32;97289.40;106659;1260;73006;-85
2023/11/27 06:38:49;;;;;;;9.60;7.00;;;;;;;-3.33;86.91;97294.48;106857;1256;70249;-82
2023/11/27 06:41:17;;;;;;;9.50;5.80;;;;;;;-3.36;86.86;97292.06;107399;1265;71217;-81
2023/11/27 06:43:45;;;;;;;12.20;5.90;;;;;;;-3.38;86.91;97295.86;107176;1257;59661;-81
2023/11/27 06:46:14;;;;;;;11.50;5.20;;;;;;;-3.27;86.69;97292.71;107284;1257;60109;-83
2023/11/27 06:48:42;;;;;;;10.30;6.60;;;;;;;-3.17;86.07;97301.95;108473;1256;71468;-82
2023/11/27 06:51:10;;;;;;;6.80;5.30;;;;;;;-3.17;85.26;97306.44;108531;1254;69228;-82
2023/11/27 06:53:37;;;;;;;8.50;5.50;;;;;;;-3.19;84.81;97312.20;107766;1258;72636;-82
2023/11/27 06:56:06;;;;;;;9.40;5.70;;;;;;;-3.21;84.33;97305.11;107780;1253;59596;-82
2023/11/27 06:58:34;;;;;;;7.90;5.60;;;;;;;-3.11;84.01;97308.36;107483;1257;60874;-82
2023/11/27 07:01:02;;;;;;;12.10;5.60;;;;;;;-3.08;83.96;97303.70;106777;1255;71854;-82
2023/11/27 07:03:30;;;;;;;7.70;5.00;;;;;;;-3.13;84.15;97307.00;107023;1254;69164;-83
2023/11/27 07:05:57;;;;;;;8.40;5.10;;;;;;;-3.19;83.59;97321.38;107229;1258;71840;-82
2023/11/27 07:08:25;;;;;;;9.30;5.90;;;;;;;-3.24;83.57;97321.08;107615;1258;59589;-81
2023/11/27 07:10:53;;;;;;;9.70;5.90;;;;;;;-3.16;83.33;97326.09;107524;1260;60993;-80
2023/11/27 07:13:24;;;;;;;7.80;4.90;;;;;;;-3.08;82.20;97320.16;107247;1254;71760;-81
2023/11/27 07:15:52;;;;;;;8.80;5.80;;;;;;;-3.12;82.38;97336.83;106671;1254;70713;-82
2023/11/27 07:18:20;;;;;;;10.40;5.80;;;;;;;-3.17;82.53;97338.27;106635;1253;72789;-82
2023/11/27 07:20:54;;;;;;;;;;;;;;;-3.20;82.44;97340.54;106567;1254;59736;-81
2023/11/27 07:23:22;;;;;;;8.30;4.90;;;;;;;-3.17;82.67;97346.98;106474;1259;59609;-80
2023/11/27 07:25:50;;;;;;;8.10;4.60;;;;;;;-3.04;82.35;97342.16;106473;1258;70706;-79
2023/11/27 07:28:18;;;;;;;8.20;4.70;;;;;;;-3.03;81.86;97346.86;106285;1256;68737;-81
2023/11/27 07:30:46;;;;;;;8.90;5.30;;;;;;;-3.11;81.24;97353.54;106567;1254;71852;-80
2023/11/27 07:33:14;;;;;;;10.50;6.60;;;;;;;-3.19;81.56;97354.77;106358;1256;60525;-80
2023/11/27 07:35:42;;;;;;;8.20;5.40;;;;;;;-3.21;81.96;97358.41;106418;1254;60516;-81
2023/11/27 07:38:10;;;;;;;7.60;5.00;;;;;;;-3.11;81.61;97354.95;106378;1258;73930;-81
2023/11/27 07:40:37;;;;;;;10.60;4.80;;;;;;;-3.03;81.06;97362.15;106303;1254;70342;-80
2023/11/27 07:43:10;;;;;;;7.60;5.10;;;;;;;-3.07;80.91;97367.05;106866;1254;71399;-83
2023/11/27 07:45:39;;;;;;;;;;;;;;;-3.11;80.99;97372.98;106455;1258;60383;-81
2023/11/27 07:48:07;;;;;;;9.20;5.10;;;;;;;-3.16;81.08;97380.60;106502;1258;60750;-80
2023/11/27 07:50:36;;;;;;;9.30;5.60;;;;;;;-3.19;81.09;97371.34;107038;1254;72589;-81
2023/11/27 07:53:04;;;;;;;8.30;5.10;;;;;;;-3.08;81.49;97378.73;108371;1253;70010;-81
2023/11/27 07:55:32;;;;;;;6.60;4.90;;;;;;;-3.04;81.08;97385.28;108867;1257;71427;-81
2023/11/27 07:58:01;;;;;;;12.10;5.30;;;;;;;-3.07;81.21;97384.17;107082;1257;60525;-82
2023/11/27 08:00:29;;;;;;;9.70;5.20;;;;;;;-3.11;81.35;97383.02;106594;1257;60468;-81
2023/11/27 08:02:56;;;;;;;13.80;6.90;;;;;;;-3.13;81.52;97387.35;106599;1254;73965;-81
2023/11/27 08:05:24;;;;;;;9.10;5.80;;;;;;;-3.05;81.59;97389.83;106340;1256;69102;-82
2023/11/27 08:07:52;;;;;;;7.20;5.40;;;;;;;-3.01;81.40;97394.01;106241;1259;71271;-81
2023/11/27 08:10:21;;;;;;;8.20;5.00;;;;;;;-3.06;81.54;97393.41;106251;1257;60429;-81
2023/11/27 08:12:48;;;;;;;8.30;5.20;;;;;;;-3.13;86.54;97403.59;106405;1254;60471;-80
2023/11/27 08:15:19;;;;;;;9.70;5.70;;;;;;;-3.19;89.06;97407.89;106240;1254;72659;-79
2023/11/27 08:17:49;;;;;;;9.90;5.40;;;;;;;-3.08;88.55;97414.38;106478;1259;69436;-80
2023/11/27 08:20:17;;;;;;;9.30;7.10;;;;;;;-3.01;87.73;97410.60;106643;1251;72673;-78
2023/11/27 08:22:45;;;;;;;9.70;6.20;;;;;;;-3.02;87.04;97411.23;106480;1251;60428;-80
2023/11/27 08:25:16;;;;;;;8.90;6.20;;;;;;;-3.05;85.33;97411.52;106240;1253;60471;-80
2023/11/27 08:27:46;;;;;;;13.50;5.70;;;;;;;-3.07;84.21;97409.48;106357;1257;73805;-80
2023/11/27 08:30:16;;;;;;;9.60;6.50;;;;;;;-3.00;82.89;97406.00;106216;1258;70726;-78
2023/11/27 08:32:43;;;;;;;9.90;5.60;;;;;;;-2.93;81.48;97402.82;106095;1257;71479;-79
2023/11/27 08:35:11;;;;;;;11.20;5.90;;;;;;;-3.00;81.80;97407.04;106131;1254;60588;-80
2023/11/27 08:37:39;;;;;;;8.90;6.20;;;;;;;-3.08;82.04;97408.83;106003;1259;60433;-80
2023/11/27 08:40:09;;;;;;;12.50;6.60;;;;;;;-3.12;83.25;97415.84;106131;1260;73909;-80
2023/11/27 08:42:38;;;;;;;8.90;5.20;;;;;;;-3.06;81.42;97416.83;105966;1254;70122;-81
2023/11/27 08:45:16;;;;;;;12.20;5.60;;;;;;;-2.96;80.95;97416.94;106147;1259;72812;-80
2023/11/27 08:47:51;;;;;;;8.40;5.00;;;;;;;-3.02;79.59;97416.23;106170;1257;60782;-82
2023/11/27 08:50:24;;;;;;;11.10;5.60;;;;;;;-3.09;79.73;97421.58;106188;1259;62472;-81
2023/11/27 08:52:57;;;;;;;12.70;5.40;;;;;;;-3.13;79.47;97426.96;106066;1254;73903;-80
2023/11/27 08:55:32;;;;;;;9.20;4.90;;;;;;;-3.09;79.63;97430.77;106231;1256;69964;-80
2023/11/27 08:58:03;;;;;;;9.10;5.20;;;;;;;-2.98;78.95;97437.54;106171;1257;74958;-80
2023/11/27 09:00:32;;;;;;;9.50;5.40;;;;;;;-2.98;78.26;97430.25;106149;1254;61679;-80
2023/11/27 09:03:00;;;;;;;14.40;6.00;;;;;;;-3.02;77.69;97438.41;106429;1254;60535;-82
2023/11/27 09:05:33;;;;;;;9.00;5.30;;;;;;;-3.06;76.77;97436.06;107347;1254;73820;-81
2023/11/27 09:08:05;;;;;;;12.00;5.50;;;;;;;-3.11;76.71;97443.20;106625;1257;67797;-83
2023/11/27 09:10:36;;;;;;;10.10;5.10;;;;;;;-3.10;76.01;97433.96;106850;1254;72085;-84
2023/11/27 09:13:05;;;;;;;8.10;5.30;;;;;;;-3.00;75.45;97434.90;106527;1257;61536;-81
2023/11/27 09:15:34;;;;;;;11.30;5.00;;;;;;;-2.98;75.22;97442.40;106338;1258;60533;-82
2023/11/27 09:18:02;;;;;;;11.40;5.10;;;;;;;-3.01;74.97;97435.23;106668;1257;73879;-80
2023/11/27 09:20:30;;;;;;;9.70;5.60;;;;;;;-3.07;74.96;97441.41;106311;1258;71113;-80
2023/11/27 09:22:57;;;;;;;11.50;4.90;;;;;;;-3.10;74.99;97441.21;106322;1254;72688;-81
2023/11/27 09:25:25;;;;;;;8.60;4.80;;;;;;;-3.04;74.96;97440.55;106888;1254;61705;-81
2023/11/27 09:27:53;;;;;;;19.20;5.10;;;;;;;-2.91;74.76;97441.27;109349;1254;58901;-81
2023/11/27 09:30:21;;;;;;;10.80;4.80;;;;;;;-2.87;74.90;97441.39;107910;1254;71863;-81
2023/11/27 09:32:51;;;;;;;11.30;4.80;;;;;;;-2.89;74.07;97435.52;106879;1254;70331;-82
2023/11/27 09:35:19;;;;;;;11.90;5.10;;;;;;;-2.91;73.87;97441.33;107022;1260;71550;-81
2023/11/27 09:37:48;;;;;;;13.80;5.20;;;;;;;-2.93;73.83;97445.10;106580;1255;61314;-84
2023/11/27 09:40:16;;;;;;;8.70;4.60;;;;;;;-2.94;73.61;97442.59;106760;1254;60399;-83
2023/11/27 09:42:44;;;;;;;9.60;3.70;;;;;;;-2.88;73.42;97449.85;107115;1254;74104;-82
2023/11/27 09:45:16;;;;;;;7.40;4.50;;;;;;;-2.70;73.08;97448.88;106967;1254;69440;-83
2023/11/27 09:47:48;;;;;;;11.20;4.20;;;;;;;-2.59;72.54;97454.23;107369;1254;72757;-81
2023/11/27 09:50:18;;;;;;;8.30;4.80;;;;;;;-2.58;72.19;97457.09;108122;1254;61269;-82
2023/11/27 09:53:05;;;;;;;8.60;4.80;;;;;;;-2.55;72.48;97452.86;106812;1257;60917;-82
2023/11/27 09:55:49;;;;;;;9.80;5.00;;;;;;;-2.49;71.90;97452.98;106781;1257;74732;-81
2023/11/27 09:59:50;;;;;;;17.50;8.20;;;;;;;-2.46;71.86;97452.95;107828;1254;69501;-83
2023/11/27 10:02:18;;;;;;;13.00;4.80;;;;;;;-2.43;71.91;97451.77;107101;1258;71452;-83
2023/11/27 10:04:46;;;;;;;9.40;4.40;;;;;;;-2.33;71.70;97448.41;107815;1254;61346;-84
2023/11/27 10:07:14;;;;;;;7.70;4.10;;;;;;;-2.04;71.45;97452.15;108236;1253;60344;-84
2023/11/27 10:09:44;;;;;;;7.50;4.30;;;;;;;-1.89;70.79;97459.52;108557;1254;72730;-82
2023/11/27 10:12:12;;;;;;;9.90;4.60;;;;;;;-1.80;69.69;97466.18;107263;1254;70340;-83
2023/11/27 10:14:45;;;;;;;8.40;5.10;;;;;;;-1.75;69.32;97465.71;106794;1254;73364;-82
2023/11/27 10:17:13;;;;;;;7.70;5.10;;;;;;;-1.69;68.96;97463.70;106375;1258;60456;-82
2023/11/27 10:19:41;;;;;;;9.60;3.90;;;;;;;-1.65;68.23;97468.39;107107;1254;60825;-83
2023/11/27 10:22:11;;;;;;;8.70;4.40;;;;;;;-1.64;68.10;97470.02;108143;1253;73773;-82
2023/11/27 10:24:39;;;;;;;7.50;4.40;;;;;;;-1.57;67.74;97468.34;107433;1257;71432;-76
2023/11/27 10:27:07;;;;;;;13.30;5.50;;;;;;;-1.44;67.78;97476.50;106804;1257;72501;-78
2023/11/27 10:29:35;;;;;;;6.60;4.00;;;;;;;-1.19;67.86;97480.66;107178;1254;60466;-78
2023/11/27 10:32:03;;;;;;;9.40;4.80;;;;;;;-1.04;66.81;97484.36;106305;1258;60526;-76
2023/11/27 10:34:32;;;;;;;10.40;5.00;;;;;;;-1.07;65.82;97486.92;105985;1255;75974;-77
2023/11/27 10:37:02;;;;;;;7.30;4.20;;;;;;;-1.24;65.57;97496.55;105807;1254;72633;-76
2023/11/27 10:39:32;;;;;;;12.70;5.10;;;;;;;-1.46;65.54;97502.31;105890;1255;72676;-75
2023/11/27 10:42:03;;;;;;;9.40;4.30;;;;;;;-1.62;66.48;97508.02;106034;1259;60661;-74
2023/11/27 10:44:39;;;;;;;15.20;5.30;;;;;;;-1.66;66.78;97512.44;106771;1254;60479;-77
2023/11/27 10:47:07;;;;;;;9.10;4.10;;;;;;;-1.67;66.62;97515.04;106278;1257;73947;-78
2023/11/27 10:49:37;;;;;;;12.80;4.90;;;;;;;-1.63;66.33;97521.70;106063;1254;70790;-78
2023/11/27 10:52:05;;;;;;;9.50;4.50;;;;;;;-1.65;66.17;97514.38;106214;1254;72345;-78
2023/11/27 10:54:34;;;;;;;13.70;4.40;;;;;;;-1.63;66.17;97518.86;105990;1254;60559;-77
2023/11/27 10:57:07;;;;;;;11.20;5.10;;;;;;;-1.63;66.54;97519.08;106178;1253;61017;-80
2023/11/27 10:59:37;;;;;;;12.40;4.90;;;;;;;-1.62;66.57;97522.95;106514;1257;73009;-75
2023/11/27 11:02:08;;;;;;;7.50;4.70;;;;;;;-1.60;66.25;97529.46;107589;1257;71026;-76
2023/11/27 11:04:46;;;;;;;14.20;4.50;;;;;;;-1.62;65.76;97533.85;106112;1259;73210;-78
2023/11/27 11:07:19;;;;;;;9.90;4.10;;;;;;;-1.67;65.87;97536.15;106434;1253;62265;-76
2023/11/27 11:09:50;;;;;;;8.60;4.60;;;;;;;-1.76;65.30;97541.80;105888;1253;60435;-76
2023/11/27 11:12:20;;;;;;;8.30;4.80;;;;;;;-1.80;65.63;97548.70;106443;1253;75993;-82
2023/11/27 11:14:48;;;;;;;9.50;4.80;;;;;;;-1.77;65.73;97557.91;107098;1254;70940;-83
2023/11/27 11:17:59;;;;;;;10.00;5.70;;;;;;;-1.75;65.79;97566.17;107695;1253;75099;-83
2023/11/27 11:20:42;;;;;;;9.50;5.20;;;;;;;-1.68;66.23;97564.00;107500;1253;60453;-83
2023/11/27 11:23:16;;;;;;;16.40;6.00;;;;;;;-1.70;66.23;97571.95;107370;1254;62203;-83
2023/11/27 11:26:21;;;;;;;15.50;6.50;;;;;;;-1.71;66.65;97581.15;107051;1260;73850;-81
2023/11/27 11:29:12;;;;;;;19.00;5.00;;;;;;;-1.81;66.72;97580.92;106515;1254;69115;-81
2023/11/27 11:32:04;;;;;;;13.10;5.20;;;;;;;-1.89;66.67;97580.34;106597;1253;72909;-81
2023/11/27 11:34:58;;;;;;;9.10;4.60;;;;;;;-2.00;66.49;97587.17;107182;1253;60492;-81